Latest Weather Observations for Thredbo Top Station

IDN60801

Issued at 4:03 am EDT Sunday 24 March 2019 (issued every 10 minutes, with the page automatically refreshed every 10 minutes)

About weather observations | Map of weather stations | Latest weather observations for NSW | Other Formats
Station Details ID: 071032 Name: THREDBO AWS Lat: -36.49 Lon: 148.29 Height: 1957.0 m
Data from the previous 72 hours. | See also: Recent months at Thredbo Top Station
Date/Time
EDT
Temp
°C
App
Temp
°C
Dew
Point
°C
Rel
Hum
%
Delta-T
°C
Wind Press
QNH
hPa
Press
MSL
hPa
Rain since
9am
mm
Dir  Spd
km/h
Gust
km/h
Spd
kts
Gust
kts
24/04:00am 10.8 4.1 7.5 80 1.8 NW 32 48 17 26 1018.2 1011.4 1.2
24/03:54am 10.9 4.2 7.2 78 2.0 NW 32 50 17 27 1018.3 1011.5 1.2
24/03:30am 11.1 3.6 7.8 80 1.8 NW 37 48 20 26 1018.4 1011.6 1.2
24/03:00am 11.3 2.6 8.5 83 1.5 NW 44 54 24 29 1018.2 1011.4 1.2
24/02:30am 11.3 3.5 9.6 89 1.0 NW 41 54 22 29 1018.3 1011.5 1.2
24/02:00am 11.6 3.4 9.7 88 1.1 NW 43 52 23 28 1018.5 1011.8 1.2
24/01:30am 11.2 4.4 9.3 88 1.1 NW 35 46 19 25 1019.1 1012.4 1.2
24/01:00am 11.0 4.8 9.3 89 0.9 NW 32 41 17 22 1019.1 1012.4 1.2
24/12:30am 11.3 4.8 8.9 85 1.3 WNW 33 41 18 22 1019.4 1012.6 1.2
24/12:00am 11.4 5.1 9.0 85 1.3 WNW 32 43 17 23 1019.5 1012.8 1.2
 
Date/Time
EDT
Temp
°C
App
Temp
°C
Dew
Point
°C
Rel
Hum
%
Delta-T
°C
Wind Press
QNH
hPa
Press
MSL
hPa
Rain since
9am
mm
Dir  Spd
km/h
Gust
km/h
Spd
kts
Gust
kts
23/11:30pm 11.6 6.0 8.8 83 1.5 WNW 28 43 15 23 1020.0 1013.3 1.2
23/11:20pm 11.8 5.8 8.8 82 1.7 WNW 30 50 16 27 1020.0 1013.3 1.2
23/11:00pm 11.4 4.9 8.8 84 1.4 WNW 33 46 18 25 1020.0 1013.3 1.2
23/10:30pm 11.4 4.4 8.4 82 1.6 WNW 35 48 19 26 1019.5 1012.8 1.2
23/10:14pm 11.1 4.5 8.7 85 1.3 NW 33 52 18 28 1019.5 1012.8 1.2
23/10:00pm 10.5 4.0 8.8 89 0.9 NW 33 41 18 22 1019.5 1012.8 1.2
23/09:30pm 9.9 2.7 9.3 96 0.3 NW 37 46 20 25 1019.4 1012.6 1.2
23/09:00pm 10.7 3.4 8.6 87 1.2 NW 37 48 20 26 1018.5 1011.8 1.2
23/08:30pm 10.6 2.9 8.7 88 1.0 NW 39 48 21 26 1018.4 1011.6 1.2
23/08:00pm 10.7 2.1 9.0 89 0.9 NNW 44 56 24 30 1017.6 1010.8 1.2
23/07:30pm 10.0 1.2 9.5 97 0.3 NNW 46 54 25 29 1017.4 1010.6 1.2
23/07:00pm 10.3 0.8 9.7 96 0.3 NW 50 59 27 32 1017.1 1010.2 1.2
23/06:30pm 11.1 0.7 9.2 88 1.1 NW 54 63 29 34 1016.8 1010.0 1.2
23/06:00pm 11.6 0.7 8.8 83 1.5 NW 56 67 30 36 1016.5 1009.6 1.2
23/05:30pm 11.9 1.8 9.1 83 1.6 NNW 52 67 28 36 1016.4 1009.5 1.2
23/05:00pm 11.6 1.8 8.8 83 1.5 NW 50 61 27 33 1016.4 1009.5 1.2
23/04:30pm 12.3 3.7 8.2 76 2.3 NNW 43 57 23 31 1016.8 1010.0 1.2
23/04:00pm 11.3 4.6 9.6 89 1.0 NNW 35 48 19 26 1017.8 1011.0 1.2
23/03:30pm 11.0 4.9 9.6 91 0.8 NNW 32 43 17 23 1018.3 1011.5 1.2
23/03:00pm 10.7 4.2 8.8 88 1.0 NNW 33 44 18 24 1018.8 1012.0 0.6
23/02:30pm 11.4 5.4 10.0 91 0.8 NNW 32 44 17 24 1018.9 1012.1 0.0
23/02:18pm 11.4 5.1 9.0 85 1.3 NNW 32 50 17 27 1019.0 1012.3 0.0
23/02:00pm 11.6 4.3 8.8 83 1.5 NW 37 48 20 26 1019.1 1012.4 0.0
23/01:30pm 10.7 2.9 8.1 84 1.4 NW 39 52 21 28 1019.6 1012.9 0.0
23/01:00pm 12.6 6.0 7.9 73 2.6 NW 32 44 17 24 1020.6 1013.9 0.0
23/12:30pm 11.4 3.2 6.7 73 2.5 NW 39 50 21 27 1020.5 1013.8 0.0
23/12:00pm 11.2 0.2 6.7 74 2.4 NW 54 67 29 36 1019.7 1013.0 0.0
23/11:30am 10.3 -0.7 6.8 79 1.8 NW 54 69 29 37 1019.5 1012.8 0.0
23/11:14am 10.6 1.6 6.6 76 2.1 NW 43 63 23 34 1020.5 1013.8 0.0
23/11:00am 13.4 6.1 4.6 55 4.5 NNW 32 39 17 21 1020.4 1013.6 0.0
23/10:30am 14.5 9.3 5.3 54 4.8 NW 22 30 12 16 1020.7 1014.0 0.0
23/10:00am 14.8 8.6 4.5 50 5.3 NNW 26 32 14 17 1020.6 1013.9 0.0
23/09:30am 14.2 7.9 3.9 50 5.3 NNW 26 32 14 17 1020.7 1014.0 0.0
23/09:00am 12.8 6.2 4.0 55 4.4 NNW 28 32 15 17 1020.6 1013.9 17.2
23/08:30am 12.1 5.0 3.3 55 4.4 NW 30 33 16 18 1020.5 1013.8 17.2
23/08:00am 12.1 5.2 2.8 53 4.6 NW 28 32 15 17 1020.7 1014.0 17.2
23/07:30am 10.6 4.2 3.4 61 3.5 NW 26 30 14 16 1020.7 1014.0 17.2
23/07:00am 9.9 5.2 3.0 62 3.3 WNW 17 19 9 10 1020.5 1013.8 17.2
23/06:30am 9.1 4.5 3.7 69 2.6 WNW 17 19 9 10 1020.7 1014.0 17.2
23/06:00am 10.0 6.8 3.1 62 3.4 W 9 13 5 7 1020.5 1013.8 17.2
23/05:30am 9.7 6.6 3.4 65 3.1 W 9 11 5 6 1020.6 1013.9 17.2
23/05:00am 9.5 5.7 4.1 69 2.7 W 13 17 7 9 1020.6 1013.9 17.2
23/04:30am 6.9 4.4 4.0 82 1.4 WNW 6 9 3 5 1020.6 1013.9 17.2
23/04:00am 6.4 3.9 3.9 84 1.2 W 6 9 3 5 1021.0 1014.3 17.2
23/03:30am 6.6 4.2 4.4 86 1.1 SW 6 7 3 4 1021.1 1014.4 17.2
23/03:00am 7.3 5.3 4.3 81 1.5 NW 4 7 2 4 1021.1 1014.4 17.2
23/02:30am 8.4 3.1 5.0 79 1.7 WNW 22 24 12 13 1022.0 1015.4 17.2
23/02:00am 8.3 4.0 5.2 81 1.6 WNW 17 19 9 10 1021.8 1015.2 17.2
23/01:30am 6.8 3.5 4.8 87 1.0 WNW 11 13 6 7 1022.0 1015.4 17.2
23/01:00am 7.4 4.8 6.0 91 0.7 NW 9 13 5 7 1022.4 1015.8 17.2
23/12:30am 6.0 1.8 5.6 97 0.2 NNW 17 19 9 10 1022.5 1015.9 17.2
23/12:00am 6.2 1.6 5.8 97 0.2 NNW 19 20 10 11 1022.5 1015.9 17.2
 
Date/Time
EDT
Temp
°C
App
Temp
°C
Dew
Point
°C
Rel
Hum
%
Delta-T
°C
Wind Press
QNH
hPa
Press
MSL
hPa
Rain since
9am
mm
Dir  Spd
km/h
Gust
km/h
Spd
kts
Gust
kts
22/11:30pm 6.2 1.6 5.8 97 0.2 NNW 19 20 10 11 1022.8 1016.2 17.2
22/11:00pm 7.1 3.1 6.7 97 0.2 NNW 17 19 9 10 1022.8 1016.2 17.2
22/10:30pm 6.1 2.2 5.5 96 0.3 N 15 19 8 10 1022.9 1016.3 17.2
22/10:00pm 7.3 4.1 6.7 96 0.3 N 13 19 7 10 1023.1 1016.5 17.2
22/09:30pm 6.9 3.2 6.3 96 0.3 NNW 15 17 8 9 1023.3 1016.7 17.2
22/09:00pm 7.5 3.8 6.4 93 0.6 NNE 15 19 8 10 1023.1 1016.5 17.2
22/08:30pm 7.2 5.1 6.8 97 0.2 NNW 7 11 4 6 1023.0 1016.4 17.2
22/08:00pm 8.0 6.1 7.7 98 0.2 NNE 7 9 4 5 1022.8 1016.2 17.2
22/07:30pm 8.1 5.9 7.8 98 0.2 ENE 9 15 5 8 1022.5 1015.9 17.2
22/07:00pm 9.2 7.6 8.9 98 0.2 ESE 7 11 4 6 1022.3 1015.7 17.2
22/06:30pm 9.7 8.3 9.4 98 0.2 SSE 7 11 4 6 1022.2 1015.5 17.2
22/06:00pm 9.9 8.1 9.6 98 0.2 SSE 9 11 5 6 1022.2 1015.5 17.2
22/05:30pm 10.4 8.0 10.1 98 0.2 S 13 17 7 9 1022.2 1015.5 17.2
22/05:00pm 12.9 11.9 7.4 69 3.0 ESE 2 6 1 3 1022.2 1015.5 17.2
22/04:30pm 12.6 10.6 6.4 66 3.3 E 6 11 3 6 1021.9 1015.3 17.2
22/04:00pm 12.5 11.5 10.2 86 1.3 E 6 9 3 5 1021.8 1015.2 17.2
22/03:30pm 11.8 11.1 10.2 90 0.9 ENE 4 13 2 7 1022.2 1015.5 17.2
22/03:00pm 10.9 8.4 9.8 93 0.6 N 13 19 7 10 1022.5 1015.9 17.2
22/02:30pm 8.7 4.7 8.3 97 0.2 N 19 24 10 13 1023.3 1016.7 17.2
22/02:00pm 7.5 2.3 7.1 97 0.2 N 24 32 13 17 1023.6 1017.0 17.0
22/01:30pm 7.4 1.4 7.0 97 0.2 N 28 32 15 17 1024.6 1018.1 17.0
22/01:00pm 7.7 3.3 7.3 97 0.2 N 20 26 11 14 1025.1 1018.6 16.2
22/12:30pm 8.2 3.9 6.8 91 0.7 NW 19 24 10 13 1025.8 1019.3 14.2
22/12:00pm 7.7 1.4 7.3 97 0.2 NW 30 35 16 19 1025.6 1019.1 11.8
22/11:30am 8.0 2.1 7.7 98 0.2 WNW 28 33 15 18 1025.7 1019.2 10.2
22/11:00am 8.0 0.8 7.7 98 0.2 WNW 35 44 19 24 1025.6 1019.1 8.0
22/10:30am 8.2 1.4 7.9 98 0.2 NW 33 43 18 23 1025.4 1018.9 4.6
22/10:00am 8.6 3.3 8.3 98 0.2 WSW 26 37 14 20 1025.4 1018.9 0.0
22/09:30am 9.9 3.6 9.0 94 0.5 W 32 43 17 23 1024.7 1018.2 0.0
22/09:24am 9.9 5.1 8.8 93 0.6 W 24 43 13 23 1024.6 1018.1 0.0
22/09:00am 13.3 11.7 8.8 74 2.5 WNW 7 11 4 6 1024.5 1017.9 0.2
22/08:30am 12.2 10.9 9.2 82 1.7 W 6 7 3 4 1024.5 1017.9 0.2
22/08:00am 11.0 8.9 8.4 84 1.4 WNW 9 11 5 6 1024.2 1017.7 0.2
22/07:30am 9.2 7.4 7.3 88 1.0 NW 6 9 3 5 1024.2 1017.7 0.2
22/07:00am 10.9 9.2 7.4 79 1.9 WSW 6 9 3 5 1024.1 1017.5 0.2
22/06:30am 10.9 9.2 7.6 80 1.8 WSW 6 9 3 5 1024.1 1017.5 0.2
22/06:00am 9.3 6.2 7.4 88 1.0 WNW 13 15 7 8 1024.1 1017.5 0.2
22/05:30am 10.3 6.6 8.1 86 1.2 NW 17 19 9 10 1024.1 1017.5 0.2
22/05:00am 10.0 7.0 7.6 85 1.3 WNW 13 15 7 8 1024.0 1017.4 0.2
22/04:30am 8.9 5.9 7.7 92 0.6 WNW 13 13 7 7 1024.0 1017.4 0.2
22/04:00am 9.2 6.6 7.6 90 0.8 NW 11 15 6 8 1024.1 1017.5 0.2
22/03:30am 9.1 5.8 8.2 94 0.5 NNW 15 17 8 9 1024.2 1017.7 0.2
22/03:00am 8.9 6.1 8.5 97 0.2 NNW 13 15 7 8 1024.2 1017.7 0.2
22/02:30am 8.5 4.8 8.1 97 0.2 NNW 17 17 9 9 1024.5 1017.9 0.2
22/02:00am 8.6 4.6 8.2 97 0.2 NNW 19 20 10 11 1024.5 1017.9 0.2
22/01:30am 8.1 4.0 7.7 97 0.2 NNW 19 20 10 11 1024.5 1017.9 0.2
22/01:00am 8.6 5.3 8.2 97 0.2 NNW 15 17 8 9 1024.6 1018.1 0.2
22/12:30am 8.8 5.2 8.5 98 0.2 NNW 17 19 9 10 1024.8 1018.3 0.0
22/12:00am 8.5 4.5 8.2 98 0.2 NNW 19 19 10 10 1025.0 1018.4 0.0
 
Date/Time
EDT
Temp
°C
App
Temp
°C
Dew
Point
°C
Rel
Hum
%
Delta-T
°C
Wind Press
QNH
hPa
Press
MSL
hPa
Rain since
9am
mm
Dir  Spd
km/h
Gust
km/h
Spd
kts
Gust
kts
21/11:30pm 9.2 5.7 8.9 98 0.2 NNW 17 20 9 11 1025.2 1018.7 0.0
21/11:00pm 9.6 6.2 9.3 98 0.2 NNW 17 19 9 10 1025.3 1018.8 0.0
21/10:30pm 10.0 8.6 9.7 98 0.2 NNE 7 13 4 7 1025.4 1018.9 0.0
21/10:00pm 10.3 8.6 10.0 98 0.2 NNE 9 13 5 7 1025.4 1018.9 0.0
21/09:30pm 10.7 9.5 10.4 98 0.2 NE 7 9 4 5 1025.4 1018.9 0.0
21/09:00pm 11.1 10.0 10.8 98 0.2 E 7 11 4 6 1025.4 1018.9 0.0
21/08:30pm 11.1 10.0 10.8 98 0.2 NNE 7 9 4 5 1025.3 1018.8 0.0
21/08:00pm 10.4 9.1 10.1 98 0.2 N 7 9 4 5 1024.7 1018.2 0.0
21/07:30pm 10.5 9.2 10.0 97 0.3 N 7 11 4 6 1024.5 1017.9 0.0
21/07:00pm 10.7 9.9 9.8 94 0.5 NNE 4 6 2 3 1024.5 1017.9 0.0
21/06:30pm 11.6 10.7 9.3 86 1.3 ENE 4 6 2 3 1024.5 1017.9 0.0
21/06:00pm 12.5 11.3 10.2 86 1.3 SE 7 9 4 5 1024.5 1017.9 0.0
21/05:30pm 12.8 11.7 9.8 82 1.7 E 6 9 3 5 1023.9 1017.3 0.0
21/05:00pm 12.9 11.4 8.6 75 2.4 E 6 7 3 4 1024.0 1017.4 0.0
21/04:30pm 13.1 11.7 9.0 76 2.3 NNE 6 9 3 5 1023.7 1017.2 0.0
21/04:00pm 12.1 10.2 9.1 82 1.7 E 9 17 5 9 1024.0 1017.4 0.0
21/03:30pm 12.4 10.9 10.5 88 1.1 ESE 9 11 5 6 1024.1 1017.5 0.0
21/03:00pm 13.2 12.8 12.4 95 0.5 E 6 9 3 5 1024.1 1017.5 0.0
21/02:30pm 13.5 12.5 12.2 92 0.8 S 9 19 5 10 1024.3 1017.8 0.0
21/02:00pm 15.3 13.0 10.3 72 2.9 S 13 24 7 13 1024.3 1017.8 0.0
21/01:30pm 15.2 12.6 10.8 75 2.6 SSW 15 22 8 12 1024.6 1018.1 0.0
21/01:00pm 15.5 13.5 10.1 70 3.1 SW 11 22 6 12 1024.8 1018.3 0.0
21/12:30pm 16.1 13.3 11.5 74 2.7 SSW 17 30 9 16 1025.1 1018.6 0.0
21/12:00pm 15.6 13.8 10.8 73 2.8 WSW 11 19 6 10 1025.2 1018.7 0.0
21/11:30am 15.5 14.8 12.1 80 2.0 W 7 15 4 8 1025.3 1018.8 0.0
21/11:00am 15.1 13.2 10.5 74 2.7 WSW 11 19 6 10 1025.2 1018.7 0.0
21/10:30am 14.8 13.3 10.6 76 2.4 SW 9 15 5 8 1025.2 1018.7 0.0
21/10:00am 14.5 12.6 9.1 70 3.0 WSW 9 15 5 8 1025.1 1018.6 0.0
21/09:30am 14.3 13.0 11.3 82 1.8 WSW 9 15 5 8 1024.7 1018.2 0.0
21/09:00am 13.3 11.0 10.3 82 1.7 WNW 13 17 7 9 1024.5 1017.9 0.0
21/08:30am 12.8 10.3 9.8 82 1.7 WNW 13 17 7 9 1024.3 1017.8 0.0
21/08:00am 11.2 8.3 9.8 91 0.8 WNW 15 19 8 10 1024.2 1017.7 0.0
21/07:30am 10.1 6.5 8.2 88 1.0 WNW 17 19 9 10 1023.9 1017.3 0.0
21/07:00am 9.7 6.0 8.0 89 0.9 WNW 17 20 9 11 1023.5 1016.9 0.0
21/06:30am 9.7 5.7 8.1 90 0.9 WNW 19 20 10 11 1023.3 1016.7 0.0
21/06:00am 10.2 6.7 7.1 81 1.6 W 15 17 8 9 1023.0 1016.4 0.0
21/05:30am 9.7 6.0 8.1 90 0.9 WNW 17 20 9 11 1022.9 1016.3 0.0
21/05:00am 9.5 5.8 8.1 91 0.8 WNW 17 19 9 10 1022.8 1016.2 0.0
21/04:30am 10.4 6.8 4.8 68 2.8 WSW 13 17 7 9 1022.5 1015.9 0.0

Other formats

Comma delimited format used in spreadsheet applications
http://www.bom.gov.au/fwo/IDN60801/IDN60801.95909.axf

JavaScript Object Notation format (JSON) in row-major order
http://www.bom.gov.au/fwo/IDN60801/IDN60801.95909.json

Data quality

Most of these data are generated automatically and are frequently updated. Quality checks on data are not normally performed. It is possible for incorrect values to appear. Refer to information at About Latest Weather Observations and please check the disclaimer before using these data.